Time;durP1;ratioP1;P1;durP2;ratioP2;P2;SDS_P1;SDS_P2;PMS_P1;PMS_P2;Temp;Humidity;BMP_temperature;BMP_pressure;BME280_temperature;BME280_humidity;BME280_pressure;Samples;Min_cycle;Max_cycle;Signal;HPM_P1;HPM_P2
2022/08/01 00:01:56;;;;;;;6.72;2.55;;;24.40;96.00;;;;;;5075252;28;20060;-71
2022/08/01 00:04:22;;;;;;;7.50;2.80;;;24.30;96.60;;;;;;5078268;28;20443;-70
2022/08/01 00:06:48;;;;;;;5.22;2.90;;;24.20;97.10;;;;;;5078526;28;20024;-71
2022/08/01 00:09:13;;;;;;;7.55;3.35;;;24.20;97.50;;;;;;5077735;28;20020;-71
2022/08/01 00:11:39;;;;;;;5.80;2.80;;;24.10;97.70;;;;;;5077653;28;20028;-70
2022/08/01 00:14:05;;;;;;;9.77;2.85;;;24.10;98.20;;;;;;5076236;28;20438;-72
2022/08/01 00:16:31;;;;;;;11.60;2.83;;;23.90;98.70;;;;;;5077076;28;20025;-70
2022/08/01 00:18:57;;;;;;;3.55;2.60;;;23.80;99.10;;;;;;5075132;28;20140;-71
2022/08/01 00:21:23;;;;;;;3.80;2.92;;;23.80;99.40;;;;;;5076942;28;20024;-70
2022/08/01 00:23:48;;;;;;;6.60;3.38;;;23.70;99.80;;;;;;5076983;28;20035;-71
2022/08/01 00:26:14;;;;;;;3.83;2.85;;;23.70;99.90;;;;;;5077078;28;20042;-71
2022/08/01 00:28:41;;;;;;;7.10;3.92;;;23.70;99.90;;;;;;5081103;28;20028;-71
2022/08/01 00:31:07;;;;;;;6.05;3.53;;;23.60;99.90;;;;;;5079679;28;20023;-70
2022/08/01 00:33:33;;;;;;;9.77;3.40;;;23.50;99.90;;;;;;5077627;28;20055;-70
2022/08/01 00:35:59;;;;;;;7.18;2.90;;;23.40;99.90;;;;;;5076504;28;20028;-71
2022/08/01 00:38:25;;;;;;;4.40;2.95;;;23.30;99.90;;;;;;5080499;28;20024;-71
2022/08/01 00:40:51;;;;;;;4.97;3.30;;;23.30;99.90;;;;;;5079258;28;20476;-71
2022/08/01 00:43:17;;;;;;;6.93;2.95;;;23.20;99.90;;;;;;5082137;28;20457;-71
2022/08/01 00:45:42;;;;;;;5.22;2.97;;;23.10;99.90;;;;;;5076780;28;20025;-71
2022/08/01 00:48:08;;;;;;;6.95;3.33;;;23.10;99.90;;;;;;5080420;28;20035;-70
2022/08/01 00:50:34;;;;;;;5.60;3.63;;;23.10;99.90;;;;;;5074885;28;20043;-70
2022/08/01 00:53:01;;;;;;;3.47;2.85;;;23.00;99.90;;;;;;5075315;28;20776;-70
2022/08/01 00:55:28;;;;;;;5.75;3.08;;;23.00;99.90;;;;;;5076344;28;20032;-71
2022/08/01 00:57:55;;;;;;;4.68;3.25;;;22.90;99.90;;;;;;5075063;28;20396;-71
2022/08/01 01:00:21;;;;;;;9.48;3.55;;;22.90;99.90;;;;;;5076245;28;20021;-70
2022/08/01 01:02:47;;;;;;;5.57;3.72;;;22.80;99.90;;;;;;5082508;28;20481;-70
2022/08/01 01:05:13;;;;;;;4.55;3.22;;;22.80;99.90;;;;;;5075728;28;20505;-70
2022/08/01 01:07:42;;;;;;;5.35;3.20;;;22.80;99.90;;;;;;5087699;28;20083;-71
2022/08/01 01:10:46;;;;;;;5.63;3.05;;;22.80;99.90;;;;;;5078648;28;20028;-70
2022/08/01 01:13:33;;;;;;;5.47;3.40;;;22.70;99.90;;;;;;5077741;28;20031;-71
2022/08/01 01:16:06;;;;;;;4.80;3.33;;;22.70;99.90;;;;;;5092837;28;20043;-70
2022/08/01 01:18:40;;;;;;;6.50;3.55;;;22.60;99.90;;;;;;5075348;28;20082;-70
2022/08/01 01:21:06;;;;;;;4.53;3.35;;;22.60;99.90;;;;;;5075825;28;20166;-70
2022/08/01 01:23:37;;;;;;;7.10;4.03;;;22.50;99.90;;;;;;5074995;28;20056;-71
2022/08/01 01:26:41;;;;;;;5.72;3.10;;;22.50;99.90;;;;;;5086678;28;20020;-70
2022/08/01 01:29:26;;;;;;;4.63;3.50;;;22.40;99.90;;;;;;5090315;28;20051;-70
2022/08/01 01:32:12;;;;;;;4.20;3.33;;;22.40;99.90;;;;;;5075737;28;20035;-70
2022/08/01 01:34:42;;;;;;;5.65;3.55;;;22.30;99.90;;;;;;5086422;28;20052;-70
2022/08/01 01:37:15;;;;;;;4.47;3.58;;;22.30;99.90;;;;;;5081983;28;20036;-70
2022/08/01 01:39:43;;;;;;;3.55;2.80;;;22.20;99.90;;;;;;5075615;28;20050;-71
2022/08/01 01:42:10;;;;;;;5.35;3.63;;;22.20;99.90;;;;;;5080925;28;20024;-71
2022/08/01 01:44:38;;;;;;;4.47;3.25;;;22.10;99.90;;;;;;5076233;28;20021;-70
2022/08/01 01:47:05;;;;;;;7.90;3.67;;;22.10;99.90;;;;;;5076034;28;20036;-71
2022/08/01 01:49:32;;;;;;;6.68;3.40;;;22.10;99.90;;;;;;5077788;28;20028;-71
2022/08/01 01:52:00;;;;;;;6.40;3.50;;;22.10;99.90;;;;;;5075968;28;20538;-71
2022/08/01 01:54:33;;;;;;;8.27;2.97;;;22.00;99.90;;;;;;5077181;28;20074;-70
2022/08/01 01:57:00;;;;;;;6.15;3.33;;;22.00;99.90;;;;;;5081524;28;20024;-70
2022/08/01 01:59:30;;;;;;;6.43;3.80;;;21.90;99.90;;;;;;5085613;28;21414;-71
2022/08/01 02:02:01;;;;;;;5.28;3.45;;;21.80;99.90;;;;;;5078729;28;20473;-70
2022/08/01 02:04:28;;;;;;;6.68;3.70;;;21.80;99.90;;;;;;5089934;28;20508;-70
2022/08/01 02:06:55;;;;;;;6.45;3.15;;;21.70;99.90;;;;;;5079150;28;20033;-70
2022/08/01 02:09:23;;;;;;;5.38;3.72;;;21.70;99.90;;;;;;5078437;28;20031;-70
2022/08/01 02:11:50;;;;;;;9.85;4.15;;;21.70;99.90;;;;;;5081243;28;20051;-70
2022/08/01 02:14:18;;;;;;;10.63;3.28;;;21.60;99.90;;;;;;5076966;28;20151;-70
2022/08/01 02:16:48;;;;;;;5.20;3.80;;;21.60;99.90;;;;;;5076980;28;20033;-70
2022/08/01 02:19:17;;;;;;;5.63;3.28;;;21.60;99.90;;;;;;5079080;28;20020;-70
2022/08/01 02:21:54;;;;;;;3.67;2.92;;;21.60;99.90;;;;;;5086503;28;20033;-70
2022/08/01 02:24:35;;;;;;;6.47;3.40;;;21.50;99.90;;;;;;5077918;28;20039;-71
2022/08/01 02:27:12;;;;;;;5.05;3.67;;;21.40;99.90;;;;;;5096139;28;20062;-71
2022/08/01 02:29:52;;;;;;;4.63;3.50;;;21.40;99.90;;;;;;5087020;28;20024;-70
2022/08/01 02:32:29;;;;;;;9.90;3.63;;;21.30;99.90;;;;;;5090396;28;20036;-70
2022/08/01 02:35:00;;;;;;;7.60;3.78;;;21.30;99.90;;;;;;5081402;28;20563;-71
2022/08/01 02:37:28;;;;;;;5.43;3.63;;;21.20;99.90;;;;;;5079748;28;20027;-70
2022/08/01 02:39:55;;;;;;;5.53;2.90;;;21.20;99.90;;;;;;5079321;28;20031;-70
2022/08/01 02:42:23;;;;;;;3.83;3.28;;;21.20;99.90;;;;;;5079354;28;20025;-70
2022/08/01 02:44:51;;;;;;;4.63;3.17;;;21.10;99.90;;;;;;5091124;28;20070;-70
2022/08/01 02:47:20;;;;;;;7.68;3.55;;;21.10;99.90;;;;;;5080655;28;20099;-70
2022/08/01 02:49:48;;;;;;;6.47;3.95;;;21.00;99.90;;;;;;5077236;28;20280;-69
2022/08/01 02:52:19;;;;;;;6.30;3.15;;;21.00;99.90;;;;;;5078503;28;20062;-71
2022/08/01 02:54:50;;;;;;;3.90;3.00;;;21.00;99.90;;;;;;5077634;28;20052;-70
2022/08/01 02:57:17;;;;;;;4.93;3.38;;;20.90;99.90;;;;;;5089478;28;20028;-70
2022/08/01 02:59:45;;;;;;;8.63;3.63;;;20.90;99.90;;;;;;5077083;28;20032;-71
2022/08/01 03:02:13;;;;;;;3.90;3.40;;;20.90;99.90;;;;;;5080880;28;20068;-70
2022/08/01 03:04:41;;;;;;;5.05;3.33;;;20.80;99.90;;;;;;5078654;28;20086;-70
2022/08/01 03:07:09;;;;;;;6.13;3.30;;;20.80;99.90;;;;;;5077091;28;20036;-70
2022/08/01 03:09:43;;;;;;;5.00;3.80;;;20.80;99.90;;;;;;5079475;28;20024;-70
2022/08/01 03:12:16;;;;;;;7.03;3.10;;;20.70;99.90;;;;;;5085573;28;20036;-70
2022/08/01 03:14:43;;;;;;;5.03;3.70;;;20.70;99.90;;;;;;5078223;28;20024;-70
2022/08/01 03:17:11;;;;;;;5.40;3.85;;;20.60;99.90;;;;;;5086945;28;20024;-70
2022/08/01 03:19:39;;;;;;;6.90;3.78;;;20.60;99.90;;;;;;5076545;28;20024;-70
2022/08/01 03:22:11;;;;;;;8.60;3.78;;;20.60;99.90;;;;;;5078589;28;20106;-70
2022/08/01 03:24:39;;;;;;;6.10;3.50;;;20.60;99.90;;;;;;5081035;28;20548;-71
2022/08/01 03:27:06;;;;;;;5.20;3.53;;;20.50;99.90;;;;;;5077034;28;20044;-70
2022/08/01 03:29:34;;;;;;;5.30;3.17;;;20.50;99.90;;;;;;5079612;28;20028;-70
2022/08/01 03:32:01;;;;;;;7.70;3.80;;;20.50;99.90;;;;;;5082575;28;20052;-70
2022/08/01 03:34:28;;;;;;;3.90;3.20;;;20.40;99.90;;;;;;5077002;28;20058;-70
2022/08/01 03:37:10;;;;;;;19.58;4.32;;;20.40;99.90;;;;;;5076371;28;20496;-70
2022/08/01 03:39:54;;;;;;;6.88;3.22;;;20.30;99.90;;;;;;5089930;28;20566;-70
2022/08/01 03:42:25;;;;;;;6.82;3.60;;;20.30;99.90;;;;;;5079141;28;20028;-70
2022/08/01 03:44:58;;;;;;;4.65;3.17;;;20.30;99.90;;;;;;5106512;28;20032;-71
2022/08/01 03:47:30;;;;;;;7.82;3.67;;;20.30;99.90;;;;;;5077895;28;20027;-70
2022/08/01 03:49:58;;;;;;;4.70;3.70;;;20.20;99.90;;;;;;5078573;28;20058;-70
2022/08/01 03:52:27;;;;;;;6.25;3.67;;;20.20;99.90;;;;;;5088302;28;20155;-71
2022/08/01 03:54:56;;;;;;;4.90;3.63;;;20.20;99.90;;;;;;5076558;28;20084;-69
2022/08/01 03:57:25;;;;;;;5.35;3.15;;;20.10;99.90;;;;;;5079687;28;20170;-70
2022/08/01 03:59:52;;;;;;;6.60;3.53;;;20.10;99.90;;;;;;5088233;28;20039;-70
2022/08/01 04:02:19;;;;;;;8.25;3.83;;;20.10;99.90;;;;;;5093932;28;20471;-70
2022/08/01 04:04:45;;;;;;;7.22;3.53;;;20.00;99.90;;;;;;5096238;28;20397;-70
2022/08/01 04:07:30;;;;;;;7.13;3.70;;;20.00;99.90;;;;;;5093419;28;20024;-70
2022/08/01 04:09:56;;;;;;;6.20;3.45;;;20.00;99.90;;;;;;5096744;28;20024;-71
2022/08/01 04:12:23;;;;;;;3.88;3.38;;;20.00;99.90;;;;;;5095705;28;20020;-70
2022/08/01 04:14:49;;;;;;;6.63;4.00;;;20.00;99.90;;;;;;5096161;28;20110;-70
2022/08/01 04:17:16;;;;;;;5.35;3.80;;;19.90;99.90;;;;;;5089542;28;20061;-70
2022/08/01 04:19:42;;;;;;;8.15;4.55;;;19.90;99.90;;;;;;5096222;28;20024;-71
2022/08/01 04:22:13;;;;;;;5.05;3.55;;;19.90;99.90;;;;;;5091997;28;20020;-69
2022/08/01 04:24:40;;;;;;;8.85;3.63;;;19.80;99.90;;;;;;5096134;28;20054;-70
2022/08/01 04:27:11;;;;;;;9.38;4.05;;;19.80;99.90;;;;;;5093031;28;20062;-74
2022/08/01 04:29:39;;;;;;;5.60;3.83;;;19.80;99.90;;;;;;5091188;28;20435;-74
2022/08/01 04:32:09;;;;;;;6.82;4.47;;;19.70;99.90;;;;;;5084555;28;20035;-73
2022/08/01 04:34:37;;;;;;;8.55;3.85;;;19.70;99.90;;;;;;5083488;28;20046;-72
2022/08/01 04:37:04;;;;;;;9.10;4.55;;;19.70;99.90;;;;;;5083506;28;20029;-73
2022/08/01 04:39:36;;;;;;;5.68;3.25;;;19.70;99.90;;;;;;5093326;28;20027;-75
2022/08/01 04:42:04;;;;;;;6.65;3.70;;;19.60;99.90;;;;;;5089963;28;20502;-74
2022/08/01 04:44:32;;;;;;;6.45;3.70;;;19.60;99.90;;;;;;5081478;28;20465;-73
2022/08/01 04:47:03;;;;;;;9.52;4.07;;;19.60;99.90;;;;;;5078531;28;20013;-72
2022/08/01 04:49:32;;;;;;;;;;;19.60;99.90;;;;;;5083091;28;20070;-73
2022/08/01 04:51:59;;;;;;;6.70;4.18;;;19.60;99.90;;;;;;5087732;28;19908;-72
2022/08/01 04:54:27;;;;;;;6.47;4.28;;;19.60;99.90;;;;;;5090213;28;20059;-74
2022/08/01 04:56:58;;;;;;;6.75;3.92;;;19.60;99.90;;;;;;5086813;28;20562;-73
2022/08/01 04:59:39;;;;;;;6.53;4.25;;;19.60;99.90;;;;;;5081714;28;20016;-74
2022/08/01 05:02:18;;;;;;;5.32;4.30;;;19.60;99.90;;;;;;5082885;28;20385;-73
2022/08/01 05:04:45;;;;;;;8.07;4.15;;;19.60;99.90;;;;;;5078719;28;20024;-73
2022/08/01 05:07:12;;;;;;;7.80;4.38;;;19.60;99.90;;;;;;5083234;28;20013;-73
2022/08/01 05:09:45;;;;;;;7.35;4.55;;;19.60;99.90;;;;;;5096081;28;20016;-73
2022/08/01 05:12:11;;;;;;;5.38;4.15;;;19.60;99.90;;;;;;5093281;28;20042;-74
2022/08/01 05:14:37;;;;;;;7.53;4.13;;;19.60;99.90;;;;;;5093217;28;20036;-75
2022/08/01 05:17:06;;;;;;;6.72;3.95;;;19.60;99.90;;;;;;5090561;28;20070;-73
2022/08/01 05:19:36;;;;;;;4.95;3.75;;;19.60;99.90;;;;;;5094900;28;20400;-73
2022/08/01 05:22:06;;;;;;;;;;;19.70;99.90;;;;;;5084402;28;20015;-74
2022/08/01 05:24:34;;;;;;;7.28;4.18;;;19.70;99.90;;;;;;5081223;28;19954;-72
2022/08/01 05:27:00;;;;;;;6.88;5.18;;;19.70;99.90;;;;;;5082006;28;20027;-73
2022/08/01 05:29:26;;;;;;;7.88;4.80;;;19.80;99.90;;;;;;5086605;28;20409;-73
2022/08/01 05:31:53;;;;;;;11.68;5.22;;;19.80;99.90;;;;;;5083844;28;20056;-72
2022/08/01 05:34:20;;;;;;;6.70;4.65;;;19.80;99.90;;;;;;5094649;28;20016;-72
2022/08/01 05:36:46;;;;;;;6.88;4.72;;;19.80;99.90;;;;;;5100084;28;20020;-73
2022/08/01 05:39:12;;;;;;;7.10;5.13;;;19.80;99.90;;;;;;5100659;28;20024;-72
2022/08/01 05:41:38;;;;;;;7.07;5.18;;;19.90;99.90;;;;;;5098156;28;20040;-72
2022/08/01 05:44:05;;;;;;;7.88;5.07;;;19.90;99.90;;;;;;5100968;28;20028;-73
2022/08/01 05:46:31;;;;;;;10.10;5.15;;;20.00;99.90;;;;;;5099147;28;20024;-73
2022/08/01 05:48:58;;;;;;;7.22;4.72;;;20.00;99.90;;;;;;5094484;28;20074;-73
2022/08/01 05:51:24;;;;;;;8.43;5.20;;;20.10;99.90;;;;;;5099361;28;20035;-72
2022/08/01 05:53:50;;;;;;;8.48;5.43;;;20.10;99.90;;;;;;5099060;28;20076;-73
2022/08/01 05:56:16;;;;;;;22.63;6.30;;;20.20;99.90;;;;;;5096364;28;20089;-72
2022/08/01 05:58:42;;;;;;;9.55;6.97;;;20.20;99.90;;;;;;5091630;28;20024;-72
2022/08/01 06:01:08;;;;;;;12.23;6.28;;;20.30;99.90;;;;;;5095156;28;20051;-72
2022/08/01 06:03:34;;;;;;;6.65;4.90;;;20.30;99.90;;;;;;5102506;28;20392;-73
2022/08/01 06:06:00;;;;;;;8.38;5.70;;;20.40;99.90;;;;;;5094137;28;20020;-73
2022/08/01 06:08:26;;;;;;;15.18;5.85;;;20.40;99.90;;;;;;5081810;28;20017;-73
2022/08/01 06:10:52;;;;;;;9.90;5.63;;;20.50;99.90;;;;;;5099221;28;20103;-73
2022/08/01 06:13:21;;;;;;;10.07;5.90;;;20.60;99.90;;;;;;5089556;28;20064;-73
2022/08/01 06:15:47;;;;;;;11.18;5.95;;;20.70;99.90;;;;;;5082381;28;20031;-73
2022/08/01 06:18:14;;;;;;;8.27;6.38;;;20.80;99.90;;;;;;5082707;28;20095;-73
2022/08/01 06:20:40;;;;;;;9.13;5.63;;;20.90;99.90;;;;;;5080736;28;20034;-73
2022/08/01 06:23:06;;;;;;;8.25;6.43;;;20.90;99.90;;;;;;5093395;28;20028;-73
2022/08/01 06:25:33;;;;;;;12.45;6.50;;;21.00;99.90;;;;;;5098703;28;20024;-72
2022/08/01 06:27:59;;;;;;;10.38;8.05;;;21.00;99.90;;;;;;5097079;28;20492;-73
2022/08/01 06:30:25;;;;;;;7.72;5.60;;;21.10;99.90;;;;;;5098369;28;20045;-73
2022/08/01 06:32:51;;;;;;;6.80;5.95;;;21.20;99.90;;;;;;5094283;28;20024;-74
2022/08/01 06:35:18;;;;;;;10.88;7.18;;;21.30;99.90;;;;;;5098300;28;20028;-73
2022/08/01 06:37:44;;;;;;;8.27;6.28;;;21.40;99.90;;;;;;5097238;28;20020;-73
2022/08/01 06:40:11;;;;;;;10.98;6.47;;;21.50;99.90;;;;;;5085673;28;20036;-72
2022/08/01 06:42:37;;;;;;;9.80;6.85;;;21.60;99.90;;;;;;5084621;28;20025;-73
2022/08/01 06:45:09;;;;;;;10.70;6.60;;;21.70;99.90;;;;;;5082915;28;20021;-73
2022/08/01 06:47:36;;;;;;;9.55;6.60;;;21.80;99.90;;;;;;5088047;28;20127;-73
2022/08/01 06:50:05;;;;;;;13.82;6.80;;;21.80;99.90;;;;;;5086470;28;20127;-73
2022/08/01 06:52:31;;;;;;;12.00;7.03;;;21.90;99.90;;;;;;5080932;28;20044;-72
2022/08/01 06:54:57;;;;;;;12.65;6.88;;;21.90;99.90;;;;;;5083899;28;20078;-73
2022/08/01 06:57:23;;;;;;;13.07;6.70;;;22.00;99.90;;;;;;5091546;28;20056;-72
2022/08/01 06:59:49;;;;;;;9.88;6.05;;;22.10;99.90;;;;;;5082058;28;20028;-73
2022/08/01 07:02:15;;;;;;;12.98;7.03;;;22.20;99.90;;;;;;5083726;28;20020;-72
2022/08/01 07:04:41;;;;;;;13.43;7.05;;;22.20;99.90;;;;;;5096809;28;20028;-73
2022/08/01 07:07:07;;;;;;;17.83;6.85;;;22.30;99.90;;;;;;5094418;28;20400;-73
2022/08/01 07:09:33;;;;;;;10.98;6.15;;;22.30;99.90;;;;;;5090294;28;20028;-73
2022/08/01 07:11:59;;;;;;;9.85;6.93;;;22.40;99.90;;;;;;5083855;28;20023;-74
2022/08/01 07:14:25;;;;;;;16.40;7.07;;;22.50;99.90;;;;;;5092821;28;20028;-73
2022/08/01 07:16:51;;;;;;;16.58;7.07;;;22.50;99.90;;;;;;5083724;28;20021;-73
2022/08/01 07:19:18;;;;;;;11.57;6.18;;;22.60;99.90;;;;;;5096269;28;20027;-73
2022/08/01 07:21:44;;;;;;;11.23;5.95;;;22.80;99.90;;;;;;5094804;28;20052;-73
2022/08/01 07:24:14;;;;;;;11.55;6.63;;;22.90;99.90;;;;;;5088865;28;20025;-74
2022/08/01 07:26:46;;;;;;;10.07;6.28;;;22.80;99.90;;;;;;5095924;28;20088;-72
2022/08/01 07:29:12;;;;;;;10.00;6.47;;;22.80;99.90;;;;;;5090025;28;20358;-73
2022/08/01 07:31:38;;;;;;;11.00;6.85;;;22.90;99.90;;;;;;5082042;28;20019;-73
2022/08/01 07:34:04;;;;;;;10.00;6.32;;;23.00;99.90;;;;;;5082722;28;20463;-73
2022/08/01 07:36:30;;;;;;;12.52;6.80;;;23.10;99.90;;;;;;5083950;28;20024;-73
2022/08/01 07:38:56;;;;;;;10.98;6.13;;;23.10;99.90;;;;;;5087493;28;20024;-73
2022/08/01 07:41:22;;;;;;;11.85;6.82;;;23.20;99.90;;;;;;5091563;28;20016;-72
2022/08/01 07:43:49;;;;;;;8.32;5.72;;;23.30;99.90;;;;;;5090450;28;20035;-72
2022/08/01 07:46:15;;;;;;;12.88;6.63;;;23.40;99.90;;;;;;5093496;28;20012;-72
2022/08/01 07:48:42;;;;;;;11.35;6.90;;;23.40;99.90;;;;;;5080738;28;20628;-74
2022/08/01 07:51:09;;;;;;;11.52;6.38;;;23.50;99.90;;;;;;5085025;28;20078;-73
2022/08/01 07:53:36;;;;;;;11.07;6.40;;;23.60;99.90;;;;;;5084079;28;20070;-72
2022/08/01 07:56:02;;;;;;;14.38;5.68;;;23.60;99.90;;;;;;5082389;28;20027;-73
2022/08/01 07:58:29;;;;;;;7.50;5.10;;;23.70;99.90;;;;;;5087211;28;20430;-73
2022/08/01 08:00:54;;;;;;;10.50;5.88;;;23.90;99.90;;;;;;5086602;28;20392;-73
2022/08/01 08:03:20;;;;;;;11.73;5.68;;;24.00;99.90;;;;;;5083525;28;20090;-74
2022/08/01 08:05:46;;;;;;;9.40;5.07;;;24.20;99.90;;;;;;5090568;28;20036;-74
2022/08/01 08:08:13;;;;;;;11.50;5.95;;;24.30;99.90;;;;;;5079736;28;20024;-73
2022/08/01 08:10:39;;;;;;;8.90;5.63;;;24.50;99.90;;;;;;5092350;28;20476;-73
2022/08/01 08:13:05;;;;;;;9.20;5.05;;;24.50;99.90;;;;;;5089097;28;20024;-72
2022/08/01 08:15:31;;;;;;;8.32;5.55;;;24.50;99.90;;;;;;5087337;28;20503;-73
2022/08/01 08:17:57;;;;;;;10.00;5.22;;;24.50;99.90;;;;;;5079079;28;20028;-72
2022/08/01 08:20:26;;;;;;;8.07;5.10;;;24.50;99.90;;;;;;5090931;28;20065;-73
2022/08/01 08:22:53;;;;;;;8.57;4.68;;;24.60;99.90;;;;;;5085663;28;20021;-73
2022/08/01 08:25:19;;;;;;;9.05;4.90;;;24.80;99.90;;;;;;5075318;28;20028;-72
2022/08/01 08:27:46;;;;;;;8.43;5.03;;;24.90;99.90;;;;;;5087299;28;20090;-73
2022/08/01 08:30:12;;;;;;;7.70;4.65;;;25.00;99.90;;;;;;5086599;28;20069;-73
2022/08/01 08:32:39;;;;;;;10.32;4.57;;;25.00;99.90;;;;;;5091629;28;20116;-72
2022/08/01 08:35:06;;;;;;;9.55;5.00;;;25.10;99.90;;;;;;5089368;28;20032;-72
2022/08/01 08:37:32;;;;;;;14.45;4.88;;;25.00;99.90;;;;;;5091368;28;20024;-72
2022/08/01 08:39:58;;;;;;;13.93;4.70;;;25.00;99.90;;;;;;5089485;28;20021;-74
2022/08/01 08:42:24;;;;;;;7.18;4.78;;;25.10;99.90;;;;;;5088974;28;20034;-72
2022/08/01 08:44:50;;;;;;;10.82;4.40;;;25.40;99.90;;;;;;5090179;28;20546;-72
2022/08/01 08:47:18;;;;;;;7.13;4.90;;;25.50;99.90;;;;;;5092929;28;20032;-72
2022/08/01 08:49:44;;;;;;;11.95;5.30;;;25.40;99.90;;;;;;5094304;28;20499;-74
2022/08/01 08:52:11;;;;;;;14.35;5.30;;;25.50;99.90;;;;;;5086146;28;20024;-74
2022/08/01 08:54:41;;;;;;;10.55;4.68;;;25.50;99.90;;;;;;5087579;28;20051;-72
2022/08/01 08:57:07;;;;;;;9.02;4.53;;;25.60;99.90;;;;;;5077654;28;20334;-73
2022/08/01 08:59:33;;;;;;;6.55;4.22;;;25.70;99.90;;;;;;5083124;28;20428;-73
2022/08/01 09:01:59;;;;;;;11.95;4.68;;;25.80;99.90;;;;;;5077104;28;20021;-73
2022/08/01 09:04:26;;;;;;;6.15;4.07;;;26.00;99.90;;;;;;5080887;28;20538;-73
2022/08/01 09:06:53;;;;;;;8.88;4.20;;;26.20;99.90;;;;;;5083824;28;20074;-74
2022/08/01 09:09:19;;;;;;;12.60;5.10;;;26.40;99.90;;;;;;5080943;28;20027;-74
2022/08/01 09:11:44;;;;;;;9.98;5.55;;;26.40;99.90;;;;;;5084995;28;20044;-73
2022/08/01 09:14:26;;;;;;;13.00;4.63;;;26.50;99.90;;;;;;5091686;28;20500;-73
2022/08/01 09:17:08;;;;;;;10.13;4.53;;;26.30;99.90;;;;;;5081347;28;20086;-73
2022/08/01 09:19:56;;;;;;;10.75;4.85;;;26.20;99.90;;;;;;5087151;28;20047;-73
2022/08/01 09:22:24;;;;;;;13.73;5.18;;;26.20;99.90;;;;;;5079274;28;20059;-73
2022/08/01 09:25:10;;;;;;;5.93;4.18;;;26.20;99.90;;;;;;5078636;28;20048;-73
2022/08/01 09:27:39;;;;;;;7.65;4.88;;;26.30;99.90;;;;;;5083586;28;20095;-73
2022/08/01 09:30:09;;;;;;;6.95;4.20;;;26.30;99.90;;;;;;5089476;28;20020;-73
2022/08/01 09:32:35;;;;;;;8.05;4.28;;;26.40;99.90;;;;;;5091811;28;20031;-73
2022/08/01 09:35:27;;;;;;;8.10;4.47;;;26.50;99.90;;;;;;5080636;28;20067;-73
2022/08/01 09:38:11;;;;;;;13.73;4.30;;;26.60;99.90;;;;;;5091587;28;20044;-73
2022/08/01 09:40:48;;;;;;;10.15;4.32;;;26.80;99.90;;;;;;5084921;28;20040;-74
2022/08/01 09:43:14;;;;;;;11.35;4.38;;;26.70;99.90;;;;;;5082078;28;20020;-74
2022/08/01 09:45:40;;;;;;;10.65;4.22;;;26.80;99.90;;;;;;5082346;28;20115;-73
2022/08/01 09:48:08;;;;;;;6.93;4.05;;;26.90;99.90;;;;;;5079168;28;20012;-73
2022/08/01 09:50:47;;;;;;;9.93;4.60;;;27.00;99.90;;;;;;5078420;28;20028;-73
2022/08/01 09:53:14;;;;;;;6.97;4.00;;;27.00;99.90;;;;;;5085136;28;20051;-73
2022/08/01 09:55:41;;;;;;;6.47;4.05;;;27.10;99.90;;;;;;5092692;28;20496;-73
2022/08/01 09:58:07;;;;;;;10.95;5.03;;;27.20;99.90;;;;;;5076919;28;20029;-73
2022/08/01 10:00:34;;;;;;;10.07;3.83;;;27.20;99.90;;;;;;5090424;28;20313;-72
2022/08/01 10:03:21;;;;;;;7.07;4.38;;;27.30;99.90;;;;;;5094615;28;20024;-72
2022/08/01 10:05:47;;;;;;;7.30;4.43;;;27.40;99.90;;;;;;5090112;28;20025;-73
2022/08/01 10:08:14;;;;;;;7.75;4.90;;;27.40;99.90;;;;;;5094393;28;20024;-72
2022/08/01 10:10:40;;;;;;;6.82;4.18;;;27.40;99.90;;;;;;5096089;28;20451;-72
2022/08/01 10:13:07;;;;;;;10.15;4.72;;;27.60;99.90;;;;;;5088929;28;20024;-72
2022/08/01 10:15:34;;;;;;;5.10;3.88;;;27.60;99.90;;;;;;5088082;28;20024;-72
2022/08/01 10:18:03;;;;;;;7.50;3.70;;;27.60;99.90;;;;;;5083140;28;20416;-73
2022/08/01 10:20:34;;;;;;;9.30;4.25;;;27.60;99.90;;;;;;5094860;28;20028;-72
2022/08/01 10:23:02;;;;;;;11.50;3.83;;;27.90;99.90;;;;;;5097637;28;20028;-72
2022/08/01 10:25:33;;;;;;;6.72;4.22;;;27.80;99.90;;;;;;5086246;28;20035;-72
2022/08/01 10:28:01;;;;;;;6.75;4.68;;;27.90;99.90;;;;;;5092506;28;20384;-72
2022/08/01 10:30:28;;;;;;;11.70;4.38;;;28.10;99.90;;;;;;5085490;28;20121;-72
2022/08/01 10:32:55;;;;;;;6.88;3.83;;;28.20;99.90;;;;;;5082811;28;20031;-73
2022/08/01 10:35:22;;;;;;;13.25;4.55;;;28.40;99.90;;;;;;5066255;28;20044;-72
2022/08/01 10:37:50;;;;;;;13.90;3.97;;;28.60;99.70;;;;;;5086266;28;20055;-72
2022/08/01 10:40:16;;;;;;;5.82;3.75;;;28.80;99.50;;;;;;5088729;28;20028;-72
2022/08/01 10:42:44;;;;;;;12.15;4.22;;;28.70;98.30;;;;;;5098643;28;20811;-73
2022/08/01 10:45:13;;;;;;;16.58;4.22;;;28.50;97.10;;;;;;5097861;28;20503;-72
2022/08/01 10:48:03;;;;;;;12.27;4.13;;;28.40;98.00;;;;;;5093073;28;20035;-72
2022/08/01 10:50:42;;;;;;;7.10;4.47;;;28.30;97.60;;;;;;5094857;28;20020;-72
2022/08/01 10:53:10;;;;;;;7.63;3.72;;;28.40;97.80;;;;;;5097717;28;20428;-73
2022/08/01 10:56:00;;;;;;;10.05;3.90;;;28.50;98.40;;;;;;5083619;28;20017;-72
2022/08/01 10:58:37;;;;;;;5.03;3.90;;;28.70;97.20;;;;;;5096007;28;20020;-72
2022/08/01 11:01:18;;;;;;;6.75;3.75;;;28.80;97.00;;;;;;5092721;28;20027;-72
2022/08/01 11:04:04;;;;;;;8.30;3.63;;;28.90;96.50;;;;;;5091976;28;20073;-72
2022/08/01 11:06:32;;;;;;;10.77;3.65;;;28.80;96.20;;;;;;5091179;28;20062;-72
2022/08/01 11:09:04;;;;;;;6.65;4.40;;;29.00;95.90;;;;;;5092799;28;20051;-72
2022/08/01 11:11:30;;;;;;;8.40;3.95;;;29.00;95.70;;;;;;5090715;28;20017;-72
2022/08/01 11:14:06;;;;;;;7.88;4.22;;;29.00;95.40;;;;;;5097358;28;20043;-72
2022/08/01 11:16:37;;;;;;;5.63;3.25;;;29.00;95.10;;;;;;5083891;28;20034;-72
2022/08/01 11:19:04;;;;;;;7.07;4.15;;;29.00;95.50;;;;;;5086003;28;20020;-72
2022/08/01 11:21:52;;;;;;;6.63;4.18;;;29.10;95.20;;;;;;5097327;28;20039;-72
2022/08/01 11:24:46;;;;;;;8.27;4.50;;;29.30;95.20;;;;;;5088858;28;20039;-73
2022/08/01 11:27:27;;;;;;;10.38;5.03;;;29.20;94.90;;;;;;5090075;28;20483;-73
2022/08/01 11:30:11;;;;;;;7.15;3.97;;;29.30;94.70;;;;;;5096960;28;20083;-73
2022/08/01 11:32:57;;;;;;;8.65;4.30;;;29.30;94.60;;;;;;5085209;28;20040;-73
2022/08/01 11:35:26;;;;;;;6.95;3.90;;;29.40;94.40;;;;;;5089649;28;20021;-72
2022/08/01 11:37:55;;;;;;;12.90;4.35;;;29.50;94.10;;;;;;5092636;28;20480;-73
2022/08/01 11:40:26;;;;;;;5.60;3.83;;;29.60;93.70;;;;;;5096637;28;20028;-72
2022/08/01 11:43:13;;;;;;;5.72;3.58;;;29.80;93.70;;;;;;5092513;28;20032;-72
2022/08/01 11:45:56;;;;;;;7.72;3.97;;;29.90;93.10;;;;;;5094031;28;20073;-72
2022/08/01 11:48:24;;;;;;;10.10;3.63;;;30.10;91.90;;;;;;5091876;28;20020;-72
2022/08/01 11:50:52;;;;;;;6.38;3.75;;;30.20;91.20;;;;;;5088781;28;20049;-72
2022/08/01 11:53:19;;;;;;;8.10;3.55;;;30.40;91.10;;;;;;5093337;28;20048;-72
2022/08/01 11:55:50;;;;;;;8.00;3.60;;;30.40;90.70;;;;;;5095258;28;20048;-72
2022/08/01 11:58:24;;;;;;;6.05;3.22;;;30.40;91.30;;;;;;5080240;28;20023;-73
2022/08/01 12:00:52;;;;;;;8.02;3.97;;;30.60;91.60;;;;;;5079899;28;20110;-73
2022/08/01 12:03:27;;;;;;;6.78;4.05;;;30.70;91.10;;;;;;5095251;28;20028;-72
2022/08/01 12:05:54;;;;;;;9.50;3.30;;;31.00;91.00;;;;;;5095729;28;20106;-72
2022/08/01 12:08:36;;;;;;;5.82;3.00;;;31.00;86.60;;;;;;5095881;28;20016;-72
2022/08/01 12:11:04;;;;;;;5.63;3.55;;;30.80;87.60;;;;;;5094476;28;20090;-73
2022/08/01 12:13:56;;;;;;;4.50;2.75;;;30.80;88.60;;;;;;5093537;28;20024;-72
2022/08/01 12:16:21;;;;;;;5.88;3.00;;;31.00;87.10;;;;;;5085232;28;20041;-73
2022/08/01 12:18:47;;;;;;;6.60;2.92;;;31.20;85.40;;;;;;5094099;28;20522;-73
2022/08/01 12:21:13;;;;;;;6.65;3.17;;;31.40;85.90;;;;;;5089271;28;20025;-73
2022/08/01 12:23:39;;;;;;;5.93;3.20;;;31.60;84.40;;;;;;5079936;28;20528;-72
2022/08/01 12:26:05;;;;;;;8.57;2.95;;;31.50;81.60;;;;;;5079133;28;20013;-72
2022/08/01 12:28:39;;;;;;;11.50;3.35;;;31.50;85.10;;;;;;5093809;28;20023;-72
2022/08/01 12:31:05;;;;;;;7.20;2.40;;;31.50;82.30;;;;;;5095942;28;20020;-73
2022/08/01 12:33:31;;;;;;;4.82;2.78;;;31.50;84.30;;;;;;5090922;28;20391;-72
2022/08/01 12:35:57;;;;;;;5.28;3.03;;;31.50;80.70;;;;;;5096102;28;20036;-72
2022/08/01 12:38:24;;;;;;;4.75;2.55;;;31.40;80.90;;;;;;5086741;28;20021;-72
2022/08/01 12:40:50;;;;;;;4.05;2.58;;;31.60;80.70;;;;;;5091381;28;20436;-72
2022/08/01 12:43:19;;;;;;;6.43;2.72;;;31.70;82.10;;;;;;5088953;28;20596;-73
2022/08/01 12:45:47;;;;;;;9.43;3.83;;;31.70;78.10;;;;;;5094506;28;20035;-72
2022/08/01 12:48:15;;;;;;;5.20;3.05;;;31.60;78.20;;;;;;5081229;28;20016;-73
2022/08/01 12:50:45;;;;;;;4.22;2.33;;;31.60;78.80;;;;;;5083348;28;20111;-72
2022/08/01 12:53:14;;;;;;;4.93;2.77;;;31.60;78.00;;;;;;5086358;28;20131;-72
2022/08/01 12:55:50;;;;;;;9.90;3.25;;;31.60;78.30;;;;;;5081620;28;20024;-73
2022/08/01 12:58:17;;;;;;;5.07;3.00;;;31.80;78.60;;;;;;5086367;28;20067;-73